This is the latest recevied weather packets stored in our database for station/object K4DNM. If no packets are shown the sender has not sent any weather packets the latest 1 day(s).
| Time | Temp. | Humidity | Pressure | Rain* | Wind** | Luminosity | Snow |
|---|---|---|---|---|---|---|---|
| 1836274675 | 21.67° C | 89% | 1017.8 hPa | 0 mm | 0 m/s | 0 W/m² | - |
| 1836274375 | 21.67° C | 89% | 1017.7 hPa | 0 mm | 0.45 m/s, 0° | 0 W/m² | - |
| 1836274289 | 21.67° C | 89% | 1017.8 hPa | 0 mm | 0.45 m/s, 142° | 0 W/m² | - |
| 1836274069 | 21.67° C | 88% | 1017.7 hPa | 0 mm | 0.45 m/s, 185° | 0 W/m² | - |
| 1778042673 | 17.78° C | 77% | 1015 hPa | 0 mm | 1.34 m/s, 168° | 0 W/m² | - |
| 1778042372 | 17.78° C | 77% | 1014.9 hPa | 0 mm | 1.34 m/s, 190° | 0 W/m² | - |
| 1778042072 | 17.78° C | 77% | 1014.9 hPa | 0 mm | 1.34 m/s, 200° | 0 W/m² | - |
| 1778041772 | 17.78° C | 77% | 1015 hPa | 0 mm | 0.89 m/s, 236° | 0 W/m² | - |
| 1778041471 | 18.33° C | 77% | 1015 hPa | 0 mm | 1.34 m/s, 227° | 0 W/m² | - |
| 1778041170 | 18.33° C | 76% | 1015 hPa | 0 mm | 1.34 m/s, 161° | 0 W/m² | - |
| 1778040867 | 18.33° C | 76% | 1015 hPa | 0 mm | 1.34 m/s, 101° | 0 W/m² | - |
| 1778040627 | 18.33° C | 76% | 1015 hPa | 0 mm | 1.79 m/s, 259° | 0 W/m² | - |
| 1778040327 | 18.33° C | 76% | 1015.1 hPa | 0 mm | 1.79 m/s, 160° | 0 W/m² | - |
| 1778039967 | 18.33° C | 76% | 1015.2 hPa | 0 mm | 1.34 m/s, 190° | 0 W/m² | - |
| 1778039667 | 18.33° C | 75% | 1015.2 hPa | 0 mm | 1.34 m/s, 192° | 0 W/m² | - |
| 1778039368 | 18.33° C | 75% | 1015.2 hPa | 0 mm | 1.34 m/s, 213° | 0 W/m² | - |
| 1778039067 | 18.33° C | 75% | 1015.2 hPa | 0 mm | 1.34 m/s, 144° | 0 W/m² | - |
| 1778038768 | 18.33° C | 75% | 1015.2 hPa | 0 mm | 1.34 m/s, 207° | 0 W/m² | - |
| 1778038468 | 18.89° C | 74% | 1015.1 hPa | 0 mm | 1.34 m/s, 193° | 0 W/m² | - |
| 1778038165 | 18.89° C | 74% | 1015.2 hPa | 0 mm | 1.34 m/s, 182° | 0 W/m² | - |
| 1778037861 | 18.89° C | 74% | 1015.3 hPa | 0 mm | 1.34 m/s, 236° | 0 W/m² | - |
| 1778037560 | 18.89° C | 73% | 1015.4 hPa | 0 mm | 1.79 m/s, 212° | 0 W/m² | - |
| 1778037258 | 18.89° C | 72% | 1015.3 hPa | 0 mm | 1.79 m/s, 224° | 0 W/m² | - |
| 1778036959 | 19.44° C | 72% | 1015.4 hPa | 0 mm | 1.79 m/s, 183° | 0 W/m² | - |
| 1778036660 | 19.44° C | 72% | 1015.5 hPa | 0 mm | 1.34 m/s, 162° | 0 W/m² | - |
* Rain latest hour (hover to see other rain measurements)
** Current wind speed in m/s (hover to see current wind gust speed)